WEATHER DATA

TODAY
Time Temp. Dewp. Hum. Wind dir Wind speed Wind gust Bar. 1h Prec. 24h Prec.
00:03 12.5 9.9 84 218 0.3 1.1 1022.9 0.0000 0.0000
00:12 12.3 9.7 84 222 0.6 1.1 1022.9 0.0000 0.0000
00:22 12.2 9.6 84 228 0.3 1.1 1023 0.0000 0.0000
00:33 12.1 9.5 84 221 0.6 1.4 1023 0.0000 0.0000
00:43 12 9.6 85 213 0.3 1.1 1023 0.0000 0.0000
00:53 12 9.6 85 213 0.6 1.4 1023.2 0.0000 0.0000
01:03 11.9 9.5 85 204 0.3 0.8 1023.1 0.0000 0.0000
01:13 11.9 9.5 85 225 0.3 1.1 1023 0.0000 0.0000
01:23 11.8 9.5 86 217 0.3 1.1 1023 0.0000 0.0000
01:33 11.8 9.5 86 213 0.6 1.4 1023 0.0000 0.0000
01:43 11.7 9.4 86 225 0.6 1.7 1023.1 0.0000 0.0000
01:54 11.6 9.3 86 225 0.6 1.4 1023 0.0000 0.0000
02:04 11.6 9.5 87 219 0.3 0.8 1023 0.0000 0.0000
02:14 11.6 9.5 87 191 0.3 0.8 1023 0.0000 0.0000
02:24 11.6 9.5 87 214 0.3 1.7 1023.1 0.0000 0.0000
02:34 11.5 9.4 87 231 0.3 1.4 1023 0.0000 0.0000
02:44 11.5 9.4 87 225 0.6 1.7 1023 0.0000 0.0000
02:54 11.4 9.3 87 225 0.6 1.4 1023 0.0000 0.0000
03:05 11.4 9.5 88 227 0.6 1.7 1023.1 0.0000 0.0000
03:15 11.4 9.5 88 231 0.6 1.7 1022.9 0.0000 0.0000
03:25 11.4 9.5 88 225 0.6 1.7 1022.9 0.0000 0.0000
03:35 11.4 9.7 89 210 0.3 1.4 1022.9 0.0000 0.0000
03:46 11.4 9.7 89 206 0.6 1.7 1022.8 0.0000 0.0000
03:56 11.3 9.4 88 225 0.6 1.7 1023.1 0.0000 0.0000
04:06 11.2 9.3 88 233 0.8 1.9 1022.9 0.0000 0.0000
04:15 11.1 9.2 88 231 0.6 1.7 1022.8 0.0000 0.0000
04:27 11 9.1 88 228 0.8 2.2 1022.9 0.0000 0.0000
04:37 10.9 9.2 89 230 0.6 1.7 1022.8 0.0000 0.0000
04:47 10.9 9.2 89 225 0.6 1.4 1022.8 0.0000 0.0000
04:57 10.9 9.2 89 217 0.3 1.4 1022.8 0.0000 0.0000
05:08 11 9.3 89 239 0.3 0.8 1022.8 0.0000 0.0000
05:18 11 9.3 89 228 0.6 1.1 1022.8 0.0000 0.0000
05:27 11 9.3 89 239 0.6 1.4 1022.8 0.0000 0.0000
05:38 10.9 9.2 89 213 0.3 0.8 1023 0.0000 0.0000
05:48 10.9 9.2 89 188 0.3 1.4 1023.1 0.0000 0.0000
05:58 10.8 9.1 89 225 0.3 1.1 1023.2 0.0000 0.0000
06:08 10.8 9.1 89 219 0.3 0.8 1023.1 0.0000 0.0000
06:19 10.8 9.1 89 218 0.6 1.1 1023.1 0.0000 0.0000
06:29 10.7 9 89 225 0.6 2.2 1023.1 0.0000 0.0000
06:40 10.6 8.9 89 220 0.6 1.9 1023.3 0.0000 0.0000
06:59 10.6 8.9 89 213 0.6 1.4 1023.4 0.0000 0.0000
07:10 10.6 8.9 89 221 0.3 1.1 1023.5 0.0000 0.0000
07:20 10.6 9 90 221 0.6 1.4 1023.6 0.0000 0.0000
07:30 10.6 9 90 225 0.3 1.4 1023.5 0.0000 0.0000
07:41 10.7 9.1 90 213 0.3 1.1 1023.6 0.0000 0.0000
07:50 10.6 8.9 89 227 0.6 1.4 1023.7 0.0000 0.0000
08:10 10.6 9 90 225 0.6 1.1 1024 0.0000 0.0000
08:21 10.6 9 90 221 0.3 1.1 1024.2 0.0000 0.0000
08:31 10.7 9.3 91 228 0.8 2.5 1024.3 0.0000 0.0000
08:41 10.8 9.6 92 229 1.1 3.1 1024.4 0.0000 0.0000
08:51 10.9 9.7 92 232 1.1 2.5 1024.5 0.0000 0.0000
09:02 11 9.8 92 225 1.1 3.1 1024.9 0.0000 0.0000
09:11 11 9.8 92 222 0.6 1.9 1024.8 0.0000 0.0000
09:21 11.1 9.9 92 230 0.8 2.2 1024.8 0.0000 0.0000
09:32 11.3 10.2 93 230 0.8 2.2 1024.9 0.0000 0.0000
09:42 11.5 10.6 94 245 0.8 1.7 1024.9 0.0000 0.0000
09:52 11.7 10.8 94 247 0.8 2.2 1024.9 0.0000 0.0000
10:02 11.8 10.9 94 247 1.1 2.2 1024.9 0.0000 0.0000
10:12 12 11.1 94 251 0.8 1.9 1025 0.0000 0.0000
10:22 12.3 11.4 94 237 0.6 1.9 1024.9 0.0000 0.0000
10:32 12.5 11.6 94 231 0.6 1.4 1024.8 0.0000 0.0000
10:43 12.8 11.7 93 180 0.3 1.4 1024.8 0.0000 0.0000
10:52 13 11.9 93 225 0.3 1.1 1024.9 0.0000 0.0000
11:02 13.3 12.2 93 225 0.6 1.9 1024.8 0.0000 0.0000
11:12 13.5 12.2 92 248 0.6 1.9 1024.9 0.0000 0.0000
11:23 13.8 12.5 92 225 0.3 1.4 1024.7 0.0000 0.0000
11:33 14.1 12.7 91 232 0.6 1.1 1024.9 0.0000 0.0000
11:42 14.4 13 91 247 0.6 1.4 1024.7 0.0000 0.0000
11:53 14.7 13.1 90 191 0.3 1.1 1024.7 0.0000 0.0000
12:03 15 13.2 89 234 0.3 1.1 1024.9 0.0000 0.0000
12:13 15.3 13.3 88 201 0.3 1.1 1024.8 0.0000 0.0000
12:28 15.5 13.2 86 90 0.3 0.8 1025 0.0000 0.0000
12:38 15.6 13.3 86 233 0.3 1.4 1025.1 0.0000 0.0000
12:48 15.7 13.4 86 217 0.3 1.4 1024.9 0.0000 0.0000
13:09 16 13.5 85 231 0.6 1.7 1024.8 0.0000 0.0000
13:19 16.2 13.5 84 228 0.6 1.7 1024.8 0.0000 0.0000
13:29 16.3 13.4 83 0 0.3 1.4 1024.8 0.0000 0.0000
13:51 16.6 13.3 81 168 0.3 0.6 1024.7 0.0000 0.0000
14:10 16.7 13.2 80 45 0.6 1.4 1024.4 0.0000 0.0000
14:20 16.8 13.1 79 45 0.3 0.8 1024.4 0.0000 0.0000
14:24 16.8 13.1 79 60 0.3 0.8 1024.3 0.0000 0.0000
14:34 16.9 13.4 80 245 0.6 1.9 1024.5 0.0000 0.0000
14:43 17 13.3 79 225 0.6 2.2 1024.3 0.0000 0.0000
14:54 17.1 13.4 79 228 0.6 1.4 1024.3 0.0000 0.0000
15:07 17.2 13.3 78 234 0.6 1.9 1024.2 0.0000 0.0000
15:16 17.3 13.4 78 237 0.6 1.7 1024.5 0.0000 0.0000
15:26 17.3 13.2 77 249 0.8 2.8 1024.7 0.0000 0.0000
15:36 17.2 13.1 77 238 0.8 3.1 1024.7 0.0000 0.0000
15:47 17.1 13 77 238 0.6 1.7 1024.8 0.0000 0.0000
15:58 17 12.9 77 225 0.8 1.7 1024.7 0.0000 0.0000
16:08 17 13.1 78 225 0.6 2.5 1024.7 0.0000 0.0000
16:18 16.9 13 78 231 0.6 1.4 1024.5 0.0000 0.0000
16:28 16.9 13 78 220 0.6 1.4 1024.8 0.0000 0.0000
16:38 16.9 13 78 228 0.6 1.7 1024.8 0.0000 0.0000
16:48 16.8 12.9 78 235 0.6 1.9 1024.8 0.0000 0.0000
16:58 16.7 12.8 78 239 0.3 1.1 1024.9 0.0000 0.0000
17:09 16.6 12.8 78 73 0.6 1.4 1024.9 0.0000 0.0000
17:18 16.5 12.7 78 186 0.3 0.8 1025.1 0.0000 0.0000
17:28 16.4 12.4 77 185 0.3 1.4 1025 0.0000 0.0000

DAY STATISTIC

2018-10-18
TEMPERATURE
AVERAGE
13.1
HIGH
17.3
15:16
LOW
10.6
06:40
PRESSURE
AVERAGE
1023.9
HIGH
1025.1
12:38
LOW
1022.8
03:46
DEWPOINT
AVERAGE
10.9
HIGH
13.5
13:09
LOW
8.9
06:40
HUMIDITY
AVERAGE
87
HIGH
94
09:42
LOW
77
15:26
WIND SPEED
AVERAGE
0.5
HIGH
1.1
08:41
WIND GUST
AVERAGE
1.5
HIGH
3.1
08:41
WIND DIRECTION
PREVAILING
SW
81.8%
N
1.0
NE
3.0
E
2.0
SE
0.0
S
9.1
SW
81.8
W
3.0
NW
0.0
PRECIPITATION
RAIN HOUR
0.0
RAIN DAY
0.0
TEMPERATURE (°C)
LOW
10.6
HIGH
17.3
AVERAGE
13.1
PRESSURE (hpa)
LOW
1022.8
HIGH
1025.1
AVERAGE
1023.9
DEVICE